createdAt,value
2018-09-22T00:02:34.944Z,100682.19
2018-09-22T00:07:38.400Z,100685.98
2018-09-22T00:12:41.940Z,100678.06
2018-09-22T00:17:45.437Z,100703.61
2018-09-22T00:22:49.076Z,100710.65
2018-09-22T00:27:52.644Z,100715.58
2018-09-22T00:32:56.200Z,100723.81
2018-09-22T00:37:59.824Z,100720.41
2018-09-22T00:43:03.464Z,100721.35
2018-09-22T00:48:07.169Z,100737.15
2018-09-22T00:53:10.887Z,100732.42
2018-09-22T00:58:14.476Z,100729.01
2018-09-22T01:03:18.209Z,100731.67
2018-09-22T01:08:21.762Z,100744.33
2018-09-22T01:13:25.426Z,100752.95
2018-09-22T01:18:29.185Z,100757.22
2018-09-22T01:23:32.729Z,100755.47
2018-09-22T01:28:36.313Z,100756.34
2018-09-22T01:33:39.849Z,100773.75
2018-09-22T01:38:43.497Z,100781.55
2018-09-22T01:43:47.081Z,100789.41
2018-09-22T01:48:50.619Z,100789.35
2018-09-22T01:53:54.162Z,100796.77
2018-09-22T01:58:59.111Z,100815.92
2018-09-22T02:04:02.642Z,100824.61
2018-09-22T02:09:08.442Z,100829.78
2018-09-22T02:14:12.143Z,100827.63
2018-09-22T02:19:15.711Z,100828.48
2018-09-22T02:24:19.300Z,100835.05
2018-09-22T02:29:22.875Z,100841.06
2018-09-22T02:34:26.514Z,100851.91
2018-09-22T02:39:30.066Z,100843.14
2018-09-22T02:44:33.650Z,100854.06
2018-09-22T02:49:37.275Z,100863.20
2018-09-22T02:54:40.798Z,100858.43
2018-09-22T02:59:44.443Z,100869.23
2018-09-22T03:04:47.995Z,100867.47
2018-09-22T03:09:51.483Z,100881.91
2018-09-22T03:14:55.273Z,100882.48
2018-09-22T03:19:58.905Z,100888.97
2018-09-22T03:25:02.466Z,100890.28
2018-09-22T03:30:06.301Z,100897.73
2018-09-22T03:35:09.846Z,100902.54
2018-09-22T03:40:13.450Z,100903.40
2018-09-22T03:45:17.038Z,100909.09
2018-09-22T03:50:20.610Z,100922.19
2018-09-22T03:55:24.180Z,100919.14
2018-09-22T04:00:31.702Z,100925.70
2018-09-22T04:05:35.241Z,100917.02
2018-09-22T04:10:38.862Z,100919.67
2018-09-22T04:15:42.518Z,100920.14
2018-09-22T04:20:46.097Z,100921.00
2018-09-22T04:25:49.686Z,100930.19
2018-09-22T04:30:53.266Z,100930.22
2018-09-22T04:35:56.841Z,100943.62
2018-09-22T04:41:00.430Z,100949.22
2018-09-22T04:46:04.127Z,100945.76
2018-09-22T04:51:07.711Z,100955.75
2018-09-22T04:56:11.290Z,100962.72
2018-09-22T05:01:14.821Z,100974.46
2018-09-22T05:06:18.349Z,100966.15
2018-09-22T05:11:21.973Z,100967.84
2018-09-22T05:16:25.546Z,100980.89
2018-09-22T05:21:29.207Z,100983.50
2018-09-22T05:26:32.985Z,100995.59
2018-09-22T05:31:36.500Z,100997.75
2018-09-22T05:36:40.080Z,101006.84
2018-09-22T05:41:43.743Z,101017.23
2018-09-22T05:46:47.268Z,101022.75
2018-09-22T05:51:50.796Z,101012.69
2018-09-22T05:56:54.445Z,101024.84
2018-09-22T06:01:57.902Z,101036.92
2018-09-22T06:07:01.524Z,101042.66
2018-09-22T06:12:05.056Z,101039.57
2018-09-22T06:17:08.711Z,101032.17
2018-09-22T06:22:12.358Z,101041.14
2018-09-22T06:27:16.022Z,101035.06
2018-09-22T06:32:19.525Z,101041.53
2018-09-22T06:37:23.193Z,101046.67
2018-09-22T06:42:26.755Z,101041.39
2018-09-22T06:47:30.377Z,101047.83
2018-09-22T06:52:34.052Z,101054.24
2018-09-22T06:57:37.569Z,101050.13
2018-09-22T07:02:41.237Z,101047.32
2018-09-22T07:07:44.808Z,101050.66
2018-09-22T07:12:48.669Z,101054.53
2018-09-22T07:17:52.285Z,101048.26
2018-09-22T07:23:01.112Z,101054.69
2018-09-22T07:28:04.764Z,101067.33
2018-09-22T07:33:08.352Z,101062.36
2018-09-22T07:38:11.894Z,101061.59
2018-09-22T07:43:15.583Z,101072.13
2018-09-22T07:48:30.307Z,101076.31
2018-09-22T07:53:33.866Z,101078.91
2018-09-22T07:58:37.673Z,101081.67
2018-09-22T08:03:41.215Z,101084.31
2018-09-22T08:08:44.795Z,101098.25
2018-09-22T08:13:48.294Z,101084.82
2018-09-22T08:18:51.917Z,101081.59
2018-09-22T08:23:55.498Z,101087.98
2018-09-22T08:28:59.154Z,101093.52
2018-09-22T08:34:02.761Z,101091.39
2018-09-22T08:39:09.041Z,101088.58
2018-09-22T08:44:12.672Z,101098.70
2018-09-22T08:49:16.291Z,101091.70
2018-09-22T08:54:19.833Z,101100.97
2018-09-22T08:59:23.443Z,101108.39
2018-09-22T09:04:27.055Z,101109.89
2018-09-22T09:09:30.558Z,101109.22
2018-09-22T09:14:34.277Z,101110.56
2018-09-22T09:19:37.862Z,101125.93
2018-09-22T09:24:41.447Z,101102.98
2018-09-22T09:29:45.527Z,101097.17
2018-09-22T09:34:49.174Z,101084.88
2018-09-22T09:39:52.790Z,101097.87
2018-09-22T09:44:56.333Z,101110.92
2018-09-22T09:49:59.848Z,101097.47
2018-09-22T09:55:03.439Z,101090.70
2018-09-22T10:00:08.988Z,101074.68
2018-09-22T10:05:12.765Z,101065.55
2018-09-22T10:10:16.346Z,101060.15
2018-09-22T10:15:20.319Z,101061.13
2018-09-22T10:20:24.245Z,101067.36
2018-09-22T10:25:28.005Z,101041.77
2018-09-22T10:30:31.584Z,101039.41
2018-09-22T10:35:35.150Z,101042.62
2018-09-22T10:40:39.301Z,101056.67
2018-09-22T10:51:10.723Z,101054.68
2018-09-22T10:56:15.021Z,101042.62
2018-09-22T11:01:18.548Z,101053.72
2018-09-22T11:06:22.303Z,101043.95
2018-09-22T11:11:25.919Z,101039.29
2018-09-22T11:16:29.453Z,101039.08
2018-09-22T11:21:33.050Z,101036.16
2018-09-22T11:26:36.813Z,101027.17
2018-09-22T11:31:40.416Z,101025.47
2018-09-22T11:36:43.942Z,101013.47
2018-09-22T11:41:47.477Z,101014.45
2018-09-22T11:46:51.270Z,101018.41
2018-09-22T11:51:54.856Z,101013.66
2018-09-22T11:56:58.449Z,101009.52
2018-09-22T12:02:02.182Z,101012.22
2018-09-22T12:07:05.623Z,101001.23
2018-09-22T12:12:09.186Z,100993.18
2018-09-22T12:17:12.733Z,101004.56
2018-09-22T12:22:16.457Z,101004.43
2018-09-22T12:27:20.015Z,101009.46
2018-09-22T12:32:24.009Z,100995.12
2018-09-22T12:37:27.592Z,100983.36
2018-09-22T12:42:31.174Z,100982.87
2018-09-22T12:47:34.733Z,100979.17
2018-09-22T12:52:38.446Z,100976.98
2018-09-22T12:57:41.980Z,100988.35
2018-09-22T13:02:45.601Z,100985.90
2018-09-22T13:07:49.339Z,100985.02
2018-09-22T13:12:53.074Z,100977.04
2018-09-22T13:17:56.574Z,100985.08
2018-09-22T13:23:00.114Z,100986.34
2018-09-22T13:28:03.720Z,100988.72
2018-09-22T13:33:07.486Z,100949.61
2018-09-22T13:38:11.145Z,100943.00
2018-09-22T13:43:14.720Z,100956.39
2018-09-22T13:48:18.413Z,100946.05
2018-09-22T13:53:21.929Z,100938.92
2018-09-22T13:58:25.443Z,100948.94
2018-09-22T14:03:29.100Z,100948.86
2018-09-22T14:08:32.628Z,100946.17
2018-09-22T14:13:36.199Z,100960.47
2018-09-22T14:18:39.853Z,100910.77
2018-09-22T14:23:43.447Z,100934.98
2018-09-22T14:28:47.991Z,100948.63
2018-09-22T14:33:51.554Z,100932.62
2018-09-22T14:38:55.018Z,100923.07
2018-09-22T14:43:58.594Z,100933.47
2018-09-22T14:49:02.072Z,100920.95
2018-09-22T14:54:06.194Z,100930.11
2018-09-22T14:59:09.799Z,100936.77
2018-09-22T15:04:13.366Z,100932.62
2018-09-22T15:09:16.904Z,100922.05
2018-09-22T15:14:20.548Z,100922.02
2018-09-22T15:19:24.153Z,100924.78
2018-09-22T15:24:27.676Z,100920.49
2018-09-22T15:29:31.205Z,100929.03
2018-09-22T15:34:34.816Z,100921.05
2018-09-22T15:39:38.342Z,100931.14
2018-09-22T15:44:44.510Z,100919.30
2018-09-22T15:49:48.059Z,100944.95
2018-09-22T15:54:51.907Z,100966.94
2018-09-22T15:59:55.524Z,101010.14
2018-09-22T16:04:59.139Z,101008.39
2018-09-22T16:10:02.779Z,101010.48
2018-09-22T16:15:06.397Z,101013.70
2018-09-22T16:20:09.939Z,101009.61
2018-09-22T16:25:13.604Z,101006.75
2018-09-22T16:30:25.219Z,100996.23
2018-09-22T16:35:28.750Z,100992.94
2018-09-22T16:40:32.311Z,100988.08
2018-09-22T16:45:35.885Z,100995.05
2018-09-22T16:50:39.528Z,100992.47
2018-09-22T16:55:43.018Z,101001.17
2018-09-22T17:00:46.588Z,101011.21
2018-09-22T17:05:50.122Z,101017.41
2018-09-22T17:10:53.716Z,100999.58
2018-09-22T17:15:57.499Z,100993.11
2018-09-22T17:21:06.654Z,100985.05
2018-09-22T17:26:10.195Z,100964.47
2018-09-22T17:31:13.871Z,100972.47
2018-09-22T17:36:18.289Z,100998.19
2018-09-22T17:41:21.942Z,100996.07
2018-09-22T17:46:25.415Z,101009.36
2018-09-22T17:51:28.958Z,101000.25
2018-09-22T17:56:32.497Z,101001.58
2018-09-22T18:01:36.069Z,101011.30
2018-09-22T18:06:39.753Z,101000.27
2018-09-22T18:11:43.665Z,101006.95
2018-09-22T18:16:47.678Z,101013.41
2018-09-22T18:21:51.761Z,101019.14
2018-09-22T18:26:55.298Z,101009.23
2018-09-22T18:31:59.949Z,101014.88
2018-09-22T18:37:03.556Z,101001.83
2018-09-22T18:42:07.193Z,101000.52
2018-09-22T18:47:10.874Z,101006.64
2018-09-22T18:52:14.425Z,101014.81
2018-09-22T18:57:18.031Z,101039.69
2018-09-22T19:02:21.626Z,101031.94
2018-09-22T19:07:25.190Z,101038.05
2018-09-22T19:12:29.067Z,101046.41
2018-09-22T19:17:39.799Z,101040.30
2018-09-22T19:22:46.374Z,101045.02
2018-09-22T19:27:57.654Z,101038.10
2018-09-22T19:33:12.965Z,101040.72
2018-09-22T19:38:21.930Z,101043.80
2018-09-22T19:43:30.347Z,101048.66
2018-09-22T19:48:41.320Z,101036.92
2018-09-22T19:53:45.135Z,101042.04
2018-09-22T19:58:48.722Z,101036.05
2018-09-22T20:03:52.354Z,101026.02
2018-09-22T20:08:55.913Z,101021.22
2018-09-22T20:13:59.603Z,101029.41
2018-09-22T20:19:03.624Z,101015.91
2018-09-22T20:24:07.329Z,101010.74
2018-09-22T20:29:10.861Z,101012.47
2018-09-22T20:34:14.353Z,101019.83
2018-09-22T20:39:17.915Z,101025.05
2018-09-22T20:44:21.557Z,101014.23
2018-09-22T20:49:25.140Z,100999.94
2018-09-22T20:54:28.631Z,101005.98
2018-09-22T20:59:32.209Z,100990.47
2018-09-22T21:04:35.810Z,100986.51
2018-09-22T21:09:39.600Z,100984.77
2018-09-22T21:14:43.221Z,100970.89
2018-09-22T21:19:46.888Z,100971.86
2018-09-22T21:24:50.848Z,100964.13
2018-09-22T21:29:54.473Z,100962.37
2018-09-22T21:35:03.281Z,100965.79
2018-09-22T21:40:07.200Z,100955.36
2018-09-22T21:45:10.410Z,100954.48
2018-09-22T21:50:14.284Z,100953.19
2018-09-22T21:55:17.761Z,100956.25
2018-09-22T22:00:30.137Z,100957.48
2018-09-22T22:05:33.602Z,100944.56
2018-09-22T22:10:37.203Z,100937.52
2018-09-22T22:15:41.002Z,100930.22
2018-09-22T22:20:44.512Z,100925.97
2018-09-22T22:25:48.029Z,100934.12
2018-09-22T22:30:51.610Z,100936.69
2018-09-22T22:35:55.113Z,100908.04
2018-09-22T22:40:58.671Z,100918.52
2018-09-22T22:46:02.197Z,100923.23
2018-09-22T22:51:05.909Z,100922.80
2018-09-22T22:56:09.412Z,100918.50
2018-09-22T23:01:12.938Z,100906.27
2018-09-22T23:06:16.413Z,100893.25
2018-09-22T23:11:19.984Z,100874.93
2018-09-22T23:16:23.454Z,100877.52
2018-09-22T23:21:27.023Z,100887.95
2018-09-22T23:26:30.814Z,100880.52
2018-09-22T23:31:34.365Z,100889.20
2018-09-22T23:36:37.870Z,100894.01
2018-09-22T23:41:42.481Z,100890.52
2018-09-22T23:46:46.019Z,100875.31
2018-09-22T23:51:49.524Z,100863.23
2018-09-22T23:56:53.081Z,100866.30
